• Join FlightAware (Why Join?)
  • Login
  • US Flag 
12:50PM EDT


 

Airport Tracker/Info


-or-


 

Live Flight TrackerFlight Track Log ✈ N99KE ✈ 07-Oct-2013 ✈ KONZ - KVKX

Flight Track Log - Related Links

Times and Time Zones

All times are in EDT time to prevent confusion due to time zone crossing. See the N99KE flight status page for this flight to view local times or setup timezone preferences in your user account.

Time Position Orientation Groundspeed Altitude Reporting Facility
EDT Latitude Longitude Course Direction KTS MPH feet Rate Location/Type
03:52PM 42.0939 -83.1628 122° Southeast 91 105 1,000  Level Cleveland Center
03:53PM 42.0814 -83.1358 122° Southeast 132 152 2,000 960 Climbing Cleveland Center
03:54PM 42.0819 -83.0903 89° East 150 173 2,900 1,260 Climbing Cleveland Center
03:54PM 42.0819 -83.0739 90° East 144 166 3,400 1,020 Climbing Cleveland Center
03:55PM 42.0794 -83.0383 95° East 143 165 4,000 840 Climbing Cleveland Center
03:55PM 42.0817 -83.0206 80° East 151 174 4,300 960 Climbing Cleveland Center
03:56PM 42.0806 -82.9819 92° East 148 170 5,000 1,200 Climbing Cleveland Center
03:56PM 42.0819 -82.9614 85° East 152 175 5,500 1,260 Climbing Cleveland Center
03:57PM 42.0822 -82.9025 90° East 164 189 6,600 1,020 Climbing Cleveland Center
03:58PM 42.0831 -82.8517 89° East 159 183 7,500 1,260 Climbing Cleveland Center
03:58PM 42.0847 -82.8408 78° East 150 173 7,900 1,140 Climbing Cleveland Center
03:59PM 42.0836 -82.7967 92° East 152 175 8,700 1,020 Climbing Cleveland Center
03:59PM 42.0844 -82.7847 85° East 149 171 9,000 240 Climbing Cleveland Center
04:00PM 42.0856 -82.7144 89° East 212 244 9,000 -60 Level Cleveland Center
04:01PM 42.0842 -82.6536 92° East 202 232 8,900 -60 Descending Cleveland Center
04:02PM 42.0844 -82.5611 90° East 207 238 8,900  Level Cleveland Center
04:03PM 42.0858 -82.4839 89° East 207 238 9,000  Climbing Cleveland Center
04:04PM 42.0478 -82.4278 132° Southeast 205 236 9,000  Level Cleveland Center
04:05PM 42.0167 -82.3897 138° Southeast 200 230 9,000  Level Cleveland Center
04:05PM 42.0069 -82.3764 134° Southeast 202 232 9,000  Level Cleveland Center
04:06PM 41.9872 -82.3481 133° Southeast 204 235 9,000  Level Cleveland Center
04:06PM 41.9697 -82.3186 129° Southeast 204 235 9,000  Level Cleveland Center
04:06PM 41.9522 -82.2942 134° Southeast 205 236 9,000  Level Cleveland Center
04:07PM 41.9317 -82.2625 131° Southeast 204 235 9,000  Level Cleveland Center
04:08PM 41.9061 -82.2272 134° Southeast 202 232 9,000  Level Cleveland Center
04:08PM 41.8847 -82.1972 134° Southeast 203 234 9,000  Level Cleveland Center
04:09PM 41.8675 -82.1700 130° Southeast 204 235 9,000  Level Cleveland Center
04:09PM 41.8461 -82.1419 136° Southeast 202 232 9,000  Level Cleveland Center
04:10PM 41.8286 -82.1158 132° Southeast 202 232 9,000  Level Cleveland Center
04:10PM 41.8086 -82.0872 133° Southeast 204 235 9,000  Level Cleveland Center
04:10PM 41.7953 -82.0681 133° Southeast 203 234 9,000  Level Cleveland Center
04:11PM 41.7703 -82.0317 133° Southeast 203 234 9,000  Level Cleveland Center
04:11PM 41.7561 -82.0139 137° Southeast 202 232 9,000  Level Cleveland Center
04:12PM 41.7319 -81.9769 131° Southeast 201 231 9,000  Level Cleveland Center
04:12PM 41.7208 -81.9631 137° Southeast 202 232 9,000  Level Cleveland Center
04:13PM 41.6864 -81.9103 131° Southeast 204 235 9,000  Level Cleveland Center
04:14PM 41.6767 -81.8969 134° Southeast 205 236 9,000  Level Cleveland Center
04:14PM 41.6461 -81.8542 134° Southeast 206 237 9,000  Level Cleveland Center
04:15PM 41.6414 -81.8464 129° Southeast 205 236 9,000  Level Cleveland Center
04:15PM 41.6072 -81.7989 134° Southeast 205 236 9,000  Level Cleveland Center
04:16PM 41.5931 -81.7797 135° Southeast 204 235 9,000  Level Cleveland Center
04:16PM 41.5650 -81.7417 135° Southeast 204 235 9,000  Level Cleveland Center
04:17PM 41.5281 -81.6869 132° Southeast 205 236 9,000  Level Cleveland Center
04:18PM 41.4881 -81.6306 133° Southeast 206 237 9,000  Level Cleveland Center
04:20PM 41.4475 -81.5742 134° Southeast 206 237 9,000  Level Cleveland Center
04:21PM 41.4067 -81.5169 134° Southeast 209 241 9,000  Level Cleveland Center
04:22PM 41.3667 -81.4600 133° Southeast 208 239 9,000  Level Cleveland Center
04:23PM 41.3267 -81.4033 133° Southeast 207 238 9,000  Level Cleveland Center
04:24PM 41.2800 -81.3383 134° Southeast 207 238 9,000  Level Cleveland Center
04:25PM 41.2392 -81.2819 134° Southeast 209 241 9,000  Level Cleveland Center
04:26PM 41.1989 -81.2239 133° Southeast 211 243 9,000  Level Cleveland Center
04:27PM 41.1578 -81.1675 134° Southeast 211 243 9,000  Level Cleveland Center
04:28PM 41.1169 -81.1108 134° Southeast 211 243 9,000  Level Cleveland Center
04:29PM 41.0753 -81.0542 134° Southeast 213 245 9,000  Level Cleveland Center
04:30PM 41.0300 -80.9900 133° Southeast 211 243 9,000  Level Cleveland Center
04:31PM 40.9894 -80.9342 134° Southeast 210 242 9,000  Level Cleveland Center
04:32PM 40.9497 -80.8786 133° Southeast 209 241 9,000  Level Cleveland Center
04:33PM 40.9092 -80.8233 134° Southeast 209 241 9,000  Level Cleveland Center
04:34PM 40.8686 -80.7683 134° Southeast 210 242 9,000  Level Cleveland Center
04:35PM 40.8283 -80.7122 133° Southeast 210 242 9,000  Level Cleveland Center
04:36PM 40.7828 -80.6519 135° Southeast 210 242 9,000  Level Cleveland Center
04:37PM 40.7425 -80.5950 133° Southeast 210 242 9,000  Level Cleveland Center
04:38PM 40.6944 -80.5300 134° Southeast 209 241 9,000  Level Cleveland Center
04:39PM 40.6547 -80.4756 134° Southeast 206 237 9,000  Level Cleveland Center
04:40PM 40.6136 -80.4208 135° Southeast 206 237 9,000  Level Cleveland Center
04:41PM 40.5706 -80.3611 133° Southeast 208 239 9,000  Level Cleveland Center
04:42PM 40.5322 -80.3103 135° Southeast 208 239 9,000  Level Cleveland Center
04:43PM 40.4925 -80.2561 134° Southeast 208 239 9,000  Level Cleveland Center
04:44PM 40.4522 -80.2025 135° Southeast 208 239 9,000  Level Cleveland Center
04:45PM 40.4042 -80.1386 135° Southeast 209 241 9,000  Level Cleveland Center
04:46PM 40.3658 -80.0856 133° Southeast 203 234 9,000  Level Cleveland Center
04:47PM 40.3258 -80.0322 135° Southeast 210 242 9,000  Level Cleveland Center
04:48PM 40.2847 -79.9772 134° Southeast 211 243 9,000  Level Cleveland Center
04:50PM 40.2436 -79.9225 135° Southeast 211 243 9,000  Level Cleveland Center
04:51PM 40.1944 -79.8578 135° Southeast 210 242 9,000  Level Cleveland Center
04:52PM 40.1536 -79.8033 134° Southeast 211 243 9,000  Level Cleveland Center
04:53PM 40.1122 -79.7483 135° Southeast 212 244 9,000  Level Cleveland Center
04:54PM 40.0717 -79.6944 135° Southeast 208 239 9,000  Level Cleveland Center
04:55PM 40.0300 -79.6406 135° Southeast 210 242 9,100  Climbing Cleveland Center
04:56PM 39.9889 -79.5853 134° Southeast 213 245 9,100  Level Cleveland Center
04:57PM 39.9381 -79.5189 135° Southeast 215 247 9,100  Level Cleveland Center
04:58PM 39.8961 -79.4644 135° Southeast 215 247 9,100  Level Cleveland Center
04:59PM 39.8536 -79.4078 134° Southeast 218 251 9,100  Level Cleveland Center
05:00PM 39.8108 -79.3528 135° Southeast 217 250 9,100  Level Cleveland Center
05:01PM 39.7697 -79.2964 133° Southeast 216 249 9,100  Level Cleveland Center
05:02PM 39.7269 -79.2425 136° Southeast 215 247 9,100  Level Cleveland Center
05:03PM 39.6753 -79.1775 136° Southeast 215 247 9,100  Level Cleveland Center
05:04PM 39.6431 -79.1325 133° Southeast 211 243 9,100  Level Washington Center
05:05PM 39.5906 -79.0681 137° Southeast 225 259 9,100  Level Washington Center
05:06PM 39.5483 -79.0150 136° Southeast 230 265 9,100  Level Washington Center
05:07PM 39.5083 -78.9619 134° Southeast 223 257 9,100  Level Washington Center
05:09PM 39.4256 -78.8558 135° Southeast 212 244 9,100  Level Washington Center
05:10PM 39.3853 -78.8058 136° Southeast 212 244 9,100  Level Washington Center
05:11PM 39.3450 -78.7531 135° Southeast 212 244 9,100  Level Washington Center
05:12PM 39.3028 -78.7003 136° Southeast 212 244 9,100  Level Washington Center
05:13PM 39.2644 -78.6478 133° Southeast 212 244 9,100  Level Washington Center
05:14PM 39.2219 -78.5950 136° Southeast 212 244 9,100 -300 Level Washington Center
05:15PM 39.1794 -78.5422 136° Southeast 212 244 8,500 -600 Descending Washington Center
05:16PM 39.1350 -78.4869 136° Southeast 212 244 8,000 -540 Descending Washington Center
05:17PM 39.0944 -78.4347 135° Southeast 212 244 7,500 -480 Descending Washington Center
05:18PM 39.0542 -78.3822 135° Southeast 212 244 7,100 -240 Descending Washington Center
05:19PM 39.0000 -78.3000 130° Southeast 190 219 7,000 -60 Descending Potomac TRACON
05:21PM 38.9167 -78.2167 142° Southeast 186 214 7,000  Level Potomac TRACON
05:22PM 38.8833 -78.1667 131° Southeast 184 212 7,000  Level Potomac TRACON
05:24PM 38.8333 -78.1333 153° Southeast 179 206 7,000  Level Potomac TRACON
05:24PM 38.8000 -78.1000 142° Southeast 178 205 7,000  Level Potomac TRACON
05:25PM 38.7667 -78.0667 142° Southeast 176 203 7,000 -60 Level Potomac TRACON
05:26PM 38.7167 -78.0167 142° Southeast 187 215 6,900 -300 Descending Potomac TRACON
05:27PM 38.6833 -77.9667 130° Southeast 203 234 6,400 -480 Descending Potomac TRACON
05:28PM 38.6500 -77.9167 130° Southeast 193 222 6,000 -240 Descending Potomac TRACON
05:29PM 38.6000 -77.8833 152° Southeast 182 209 6,000  Level Potomac TRACON
05:30PM 38.5667 -77.8500 142° Southeast 179 206 6,000 -300 Level Potomac TRACON
05:31PM 38.5500 -77.7833 108° East 191 220 5,500 -540 Descending Potomac TRACON
05:32PM 38.5500 -77.7167 90° East 194 223 5,000 -300 Descending Potomac TRACON
05:33PM 38.5500 -77.6500 90° East 187 215 5,000  Level Potomac TRACON
05:34PM 38.5500 -77.5833 90° East 183 211 5,000  Level Potomac TRACON
05:35PM 38.5500 -77.5167 90° East 182 209 5,000  Level Potomac TRACON
05:36PM 38.5500 -77.4667 90° East 182 209 5,000  Level Potomac TRACON
05:37PM 38.5500 -77.4000 90° East 179 206 5,000  Level Potomac TRACON
05:38PM 38.5667 -77.3333 72° East 187 215 5,000 -240 Level Potomac TRACON
05:39PM 38.5833 -77.2667 72° East 193 222 4,600 -720 Descending Potomac TRACON
05:40PM 38.6000 -77.2000 72° East 210 242 3,600 -1,080 Descending Potomac TRACON
05:41PM 38.6333 -77.1500 50° Northeast 204 235 2,600 -1,140 Descending Potomac TRACON
05:42PM 38.6500 -77.0833 72° East 198 228 1,500 -720 Descending Potomac TRACON
05:43PM 38.6833 -77.0333 49° Northeast 172 198 1,100 -300 Descending Potomac TRACON
05:44PM 38.7167 -77.0000 38° Northeast 136 157 900 -300 Descending Potomac TRACON
05:45PM 38.7333 -76.9833 38° Northeast 83 96 600 -300 Descending Potomac TRACON
05:46PM 38.7500 -76.9500 57° Northeast 79 91 300 -300 Descending Potomac TRACON
05:48PM 38.7486 -76.9559 180° South  Level Estimated
05:55PM 38.7486 -76.9559 72° East  Level Estimated
05:56PM 38.7486 -76.9559 72° East  Level Estimated
05:57PM 38.7486 -76.9559 72° East  Level Estimated